Weather reports worldwide

Advertisment
Crotone, Italy (16350): temperature & dewpoint: 10.08.2018 13:00:00 - 16.08.2018 13:00:00 (CEST)Crotone, Italy (16350): wind speed: 10.08.2018 13:00:00 - 16.08.2018 13:00:00 (CEST)Crotone, Italy (16350): wind direction: 10.08.2018 13:00:00 - 16.08.2018 13:00:00 (CEST)Crotone, Italy (16350): visibility: 10.08.2018 13:00:00 - 16.08.2018 13:00:00 (CEST)
Date & Time tt [°C] td [°C] ff [km/h] ff [kn] dd vv [km]
16.08.2018 13:00:00 26,0 19,0 21 11 ENE 10
16.08.2018 12:00:00 26,0 18,0 24 13 NNE 10
16.08.2018 11:00:00 26,0 19,0 15 8 NNE 10
16.08.2018 10:00:00 22,0 19,0 13 7 NNW 10
16.08.2018 09:00:00 20,0 18,0 13 7 NNW 10
16.08.2018 08:00:00 20,0 17,0 9 5 NNE 10
16.08.2018 07:00:00 - - - - - -
16.08.2018 06:00:00 - - - - - -
16.08.2018 05:00:00 - - - - - -
16.08.2018 04:00:00 - - - - - -
16.08.2018 03:00:00 - - - - - -
16.08.2018 02:00:00 - - - - - -
16.08.2018 01:00:00 - - - - - -
16.08.2018 00:00:00 - - - - - -
15.08.2018 23:00:00 - - - - - -
15.08.2018 22:00:00 - - - - - -
15.08.2018 21:00:00 - - - - - -
15.08.2018 20:00:00 26,0 21,0 16 9 SW 10
15.08.2018 19:00:00 27,0 19,0 26 14 SSW 10
15.08.2018 18:00:00 28,0 17,0 34 18 SW 10
15.08.2018 17:00:00 30,0 16,0 31 17 SW 10
15.08.2018 16:00:00 30,0 16,0 29 16 SW 10
15.08.2018 15:00:00 31,0 15,0 26 14 SSW 10
15.08.2018 14:00:00 30,0 15,0 21 11 SW 10
15.08.2018 13:00:00 30,0 14,0 15 8 S 10
15.08.2018 12:00:00 28,0 16,0 8 4 - 10
15.08.2018 11:00:00 26,0 18,0 8 4 NE 10
15.08.2018 10:00:00 26,0 13,0 9 5 N 10
15.08.2018 09:00:00 26,0 14,0 31 17 W 10
15.08.2018 08:00:00 25,0 18,0 18 10 SW 10
15.08.2018 07:00:00 - - - - - -
15.08.2018 06:00:00 - - - - - -
15.08.2018 05:00:00 - - - - - -
15.08.2018 04:00:00 - - - - - -
15.08.2018 03:00:00 - - - - - -
15.08.2018 02:00:00 - - - - - -
15.08.2018 01:00:00 - - - - - -
15.08.2018 00:00:00 - - - - - -
14.08.2018 23:00:00 - - - - - -
14.08.2018 22:00:00 - - - - - -
14.08.2018 21:00:00 - - - - - -
14.08.2018 20:00:00 29,0 19,0 16 9 SW 10
14.08.2018 19:00:00 29,0 18,0 22 12 SSW 10
14.08.2018 18:00:00 31,0 17,0 18 10 S 10
14.08.2018 17:00:00 31,0 18,0 16 9 S 10
14.08.2018 16:00:00 32,0 15,0 18 10 SSE 10
14.08.2018 15:00:00 33,0 12,0 21 11 SE 10
14.08.2018 14:00:00 33,0 14,0 18 10 SE 10
14.08.2018 13:00:00 33,0 14,0 11 6 ESE 10
14.08.2018 12:00:00 32,0 13,0 5 3 - 10
14.08.2018 11:00:00 28,0 19,0 9 5 ESE 10
14.08.2018 10:00:00 28,0 17,0 4 2 - 10
14.08.2018 09:00:00 28,0 16,0 0 0 N 10
14.08.2018 08:00:00 26,0 14,0 0 0 N 10
14.08.2018 07:00:00 - - - - - -
14.08.2018 06:00:00 - - - - - -
14.08.2018 05:00:00 - - - - - -
14.08.2018 04:00:00 - - - - - -
14.08.2018 03:00:00 - - - - - -
14.08.2018 02:00:00 - - - - - -
14.08.2018 01:00:00 - - - - - -
14.08.2018 00:00:00 - - - - - -
13.08.2018 23:00:00 - - - - - -
13.08.2018 22:00:00 - - - - - -
13.08.2018 21:00:00 - - - - - -
13.08.2018 20:00:00 27,0 22,0 21 11 SSW 10
13.08.2018 19:00:00 28,0 22,0 22 12 S 10
13.08.2018 18:00:00 - - - - - -
13.08.2018 17:00:00 30,0 20,0 22 12 SSW 10
13.08.2018 16:00:00 31,0 19,0 24 13 S 10
13.08.2018 15:00:00 23,0 19,0 18 10 S 10
13.08.2018 14:00:00 32,0 16,0 15 8 S 10
13.08.2018 13:00:00 32,0 19,0 15 8 SSE 10
13.08.2018 12:00:00 32,0 17,0 11 6 S 10
13.08.2018 11:00:00 32,0 14,0 8 4 ENE 10
13.08.2018 10:00:00 30,0 15,0 8 4 NE 10
13.08.2018 09:00:00 30,0 17,0 8 4 ENE 10
13.08.2018 08:00:00 27,0 20,0 9 5 NNE 10
13.08.2018 07:00:00 - - - - - -
13.08.2018 06:00:00 - - - - - -
13.08.2018 05:00:00 - - - - - -
13.08.2018 04:00:00 - - - - - -
13.08.2018 03:00:00 - - - - - -
13.08.2018 02:00:00 - - - - - -
13.08.2018 01:00:00 - - - - - -
13.08.2018 00:00:00 - - - - - -
12.08.2018 23:00:00 - - - - - -
12.08.2018 22:00:00 - - - - - -
12.08.2018 21:00:00 - - - - - -
12.08.2018 20:00:00 27,0 21,0 13 7 SW 10
12.08.2018 19:00:00 30,0 19,0 11 6 SSW 10
12.08.2018 18:00:00 31,0 20,0 8 4 W 10
12.08.2018 17:00:00 29,0 15,0 2 1 - 10
12.08.2018 16:00:00 29,0 14,0 0 0 N 10
12.08.2018 15:00:00 29,0 16,0 8 4 NE 10
12.08.2018 14:00:00 32,0 14,0 15 8 NE 10
12.08.2018 13:00:00 32,0 14,0 16 9 NE 10
12.08.2018 12:00:00 32,0 16,0 13 7 NE 10
12.08.2018 11:00:00 31,0 16,0 15 8 NE 10
12.08.2018 10:00:00 31,0 16,0 13 7 NNE 10
12.08.2018 09:00:00 29,0 17,0 8 4 NNW 10
12.08.2018 08:00:00 28,0 18,0 8 4 N 10
12.08.2018 07:00:00 - - - - - -
12.08.2018 06:00:00 - - - - - -
12.08.2018 05:00:00 - - - - - -
12.08.2018 04:00:00 - - - - - -
12.08.2018 03:00:00 - - - - - -
12.08.2018 02:00:00 - - - - - -
12.08.2018 01:00:00 - - - - - -
12.08.2018 00:00:00 - - - - - -
11.08.2018 23:00:00 - - - - - -
11.08.2018 22:00:00 - - - - - -
11.08.2018 21:00:00 - - - - - -
11.08.2018 20:00:00 - - - - - -
11.08.2018 19:00:00 32,0 18,0 93 50 NW 10
11.08.2018 18:00:00 32,0 17,0 5 3 - 10
11.08.2018 17:00:00 31,0 19,0 2 1 - 10
11.08.2018 16:00:00 29,0 19,0 8 4 S 10
11.08.2018 15:00:00 29,0 20,0 9 5 S 10
11.08.2018 14:00:00 30,0 20,0 22 12 SSW 10
11.08.2018 13:00:00 33,0 16,0 11 6 NE 10
11.08.2018 12:00:00 31,0 17,0 11 6 ENE 10
11.08.2018 11:00:00 31,0 17,0 15 8 ENE 10
11.08.2018 10:00:00 31,0 17,0 13 7 NNE 10
11.08.2018 09:00:00 29,0 18,0 15 8 NNE 10
11.08.2018 08:00:00 28,0 17,0 8 4 NNE 10
11.08.2018 07:00:00 25,0 17,0 4 2 N 10
11.08.2018 06:00:00 - - - - - -
11.08.2018 05:00:00 - - - - - -
11.08.2018 04:00:00 - - - - - -
11.08.2018 03:00:00 - - - - - -
11.08.2018 02:00:00 - - - - - -
11.08.2018 01:00:00 - - - - - -
11.08.2018 00:00:00 - - - - - -
10.08.2018 23:00:00 - - - - - -
10.08.2018 22:00:00 - - - - - -
10.08.2018 21:00:00 - - - - - -
10.08.2018 20:00:00 29,0 19,0 4 2 SW 10
10.08.2018 19:00:00 29,0 20,0 9 5 SW 10
10.08.2018 18:00:00 31,0 19,0 16 9 SW 10
10.08.2018 17:00:00 - - 11 6 S 10
10.08.2018 16:00:00 33,0 13,0 9 5 NE 10
10.08.2018 15:00:00 33,0 15,0 9 5 NE 10
10.08.2018 14:00:00 33,0 16,0 9 5 NE 10
10.08.2018 13:00:00 32,0 14,0 11 6 NE 10

tt = temperature
td = dewpoint
ff = wind speed
dd = wind direction
vv = visibility

Next stations